Weather reports worldwide

Advertisment
Chamonix, France (7469): temperature & dewpoint: 20.05.2020 14:00:00 - 26.05.2020 14:00:00 (CEST)Chamonix, France (7469): wind speed & gusts: 20.05.2020 14:00:00 - 26.05.2020 14:00:00 (CEST)Chamonix, France (7469): wind direction: 20.05.2020 14:00:00 - 26.05.2020 14:00:00 (CEST)Chamonix, France (7469): precipitation: 20.05.2020 14:00:00 - 26.05.2020 14:00:00 (CEST)
Date & Time tt [°C] td [°C] ff [km/h] ff [kn] fx [km/h] fx [kn] dd rr [mm]
26.05.2020 14:00:00 20,8 8,4 8 4 25 14 SW 0,0
26.05.2020 13:00:00 19,1 7,8 8 4 26 14 SW 0,0
26.05.2020 12:00:00 17,8 7,5 8 4 22 12 SW 0,0
26.05.2020 11:00:00 16,8 7,7 7 4 20 11 SW 0,0
26.05.2020 10:00:00 15,2 9,1 3 1 11 6 S 0,0
26.05.2020 09:00:00 8,3 8,0 3 2 9 5 ESE 0,0
26.05.2020 08:00:00 5,0 4,6 2 1 7 4 E 0,0
26.05.2020 07:00:00 4,7 4,3 2 1 6 4 NE 0,0
26.05.2020 06:00:00 4,8 4,2 3 1 8 4 NE 0,0
26.05.2020 05:00:00 5,1 4,5 0 0 5 3 N 0,0
26.05.2020 04:00:00 5,8 5,2 0 0 5 3 N 0,0
26.05.2020 03:00:00 6,2 5,5 2 1 5 3 NNE 0,0
26.05.2020 02:00:00 7,0 6,1 0 0 4 2 N 0,0
26.05.2020 01:00:00 7,7 6,6 2 1 5 3 E 0,0
26.05.2020 00:00:00 8,6 7,1 0 0 5 3 N 0,0
25.05.2020 23:00:00 9,9 7,7 0 0 5 3 N 0,0
25.05.2020 22:00:00 11,5 7,6 0 0 8 4 N 0,0
25.05.2020 21:00:00 13,6 8,2 2 1 16 9 NNE 0,0
25.05.2020 20:00:00 16,4 8,6 3 2 21 11 ENE 0,0
25.05.2020 19:00:00 19,2 7,3 7 4 27 14 SW 0,0
25.05.2020 18:00:00 21,7 7,9 6 4 29 16 SSW 0,0
25.05.2020 17:00:00 22,5 8,2 8 5 26 14 SW 0,0
25.05.2020 16:00:00 21,4 6,5 9 5 25 14 WSW 0,0
25.05.2020 15:00:00 21,2 5,9 7 4 28 15 SSW 0,0
25.05.2020 14:00:00 19,7 6,1 11 6 27 15 WSW 0,0
25.05.2020 13:00:00 18,4 5,6 9 5 26 14 SW 0,0
25.05.2020 12:00:00 17,5 4,8 6 4 24 13 SW 0,0
25.05.2020 11:00:00 16,8 5,7 5 3 14 8 S 0,0
25.05.2020 10:00:00 14,3 5,6 3 2 9 5 SSE 0,0
25.05.2020 09:00:00 7,4 6,8 3 2 8 4 ESE 0,0
25.05.2020 08:00:00 4,0 3,6 0 0 6 3 N 0,0
25.05.2020 07:00:00 3,5 3,1 0 0 5 3 N 0,0
25.05.2020 06:00:00 3,4 2,8 0 0 4 2 N 0,0
25.05.2020 05:00:00 3,8 3,2 0 0 7 4 N 0,0
25.05.2020 04:00:00 4,6 4,0 3 1 7 4 ENE 0,0
25.05.2020 03:00:00 4,7 4,0 3 1 6 4 E 0,0
25.05.2020 02:00:00 5,2 4,3 0 0 7 4 N 0,0
25.05.2020 01:00:00 5,9 4,7 0 0 6 3 N 0,0
25.05.2020 00:00:00 6,9 5,2 2 1 6 3 E 0,0
24.05.2020 23:00:00 8,1 5,6 0 0 6 3 N 0,0
24.05.2020 22:00:00 9,8 4,6 2 1 11 6 N 0,0
24.05.2020 21:00:00 12,4 4,4 2 1 18 10 NE 0,0
24.05.2020 20:00:00 13,7 6,1 3 2 18 10 ENE 0,0
24.05.2020 19:00:00 16,0 5,6 8 4 25 13 WSW 0,0
24.05.2020 18:00:00 17,9 4,8 8 4 27 14 S 0,0
24.05.2020 17:00:00 18,1 5,3 10 6 27 14 SW 0,0
24.05.2020 16:00:00 17,4 6,0 10 5 29 16 WSW 0,0
24.05.2020 15:00:00 17,4 6,0 8 4 33 18 SSW 0,0
24.05.2020 14:00:00 16,2 5,8 8 5 28 15 SW 0,0
24.05.2020 13:00:00 16,2 7,9 6 3 21 12 SSW 0,0
24.05.2020 12:00:00 14,7 5,5 4 2 17 9 S 0,0
24.05.2020 11:00:00 14,0 7,1 4 2 13 7 SSE 0,0
24.05.2020 10:00:00 12,0 7,1 4 2 17 9 SSE 0,0
24.05.2020 09:00:00 8,4 6,9 4 2 11 6 SW 0,0
24.05.2020 08:00:00 7,8 6,6 4 2 14 8 SW 0,0
24.05.2020 07:00:00 7,8 6,9 4 2 13 7 WSW 0,2
24.05.2020 06:00:00 8,1 7,2 2 1 11 6 S 0,0
24.05.2020 05:00:00 8,3 7,4 4 2 11 6 S 0,0
24.05.2020 04:00:00 8,9 7,7 5 3 12 6 WSW 0,0
24.05.2020 03:00:00 9,2 8,0 3 1 16 8 SW 0,0
24.05.2020 02:00:00 9,4 8,8 4 2 14 8 SSW 0,0
24.05.2020 01:00:00 9,6 8,8 5 3 17 9 WSW 0,0
24.05.2020 00:00:00 10,1 9,3 0 0 9 5 N 0,0
23.05.2020 23:00:00 10,0 9,5 2 1 7 4 WSW 0,0
23.05.2020 22:00:00 9,7 9,1 3 1 5 3 NNE 0,0
23.05.2020 21:00:00 10,2 9,3 0 0 18 10 N 0,0
23.05.2020 20:00:00 10,4 9,5 6 3 19 10 S 0,4
23.05.2020 19:00:00 10,5 9,7 2 1 7 4 NW 1,6
23.05.2020 18:00:00 10,9 10,0 4 2 25 13 N 3,8
23.05.2020 17:00:00 11,8 10,2 5 3 38 20 SSW 4,2
23.05.2020 16:00:00 14,0 12,2 8 4 39 21 S 5,0
23.05.2020 15:00:00 14,7 12,6 11 6 50 27 S 5,4
23.05.2020 14:00:00 22,0 9,2 7 4 35 19 SW 0,0
23.05.2020 13:00:00 23,5 8,0 11 6 35 19 WSW 0,0
23.05.2020 12:00:00 21,3 12,2 3 2 13 7 NE 0,0
23.05.2020 11:00:00 20,5 11,7 2 1 6 4 W 0,0
23.05.2020 10:00:00 17,2 11,5 3 1 8 4 N 0,0
23.05.2020 09:00:00 13,8 10,0 4 2 9 5 NNW 0,0
23.05.2020 08:00:00 11,7 9,3 3 1 8 4 NE 0,0
23.05.2020 07:00:00 9,8 7,9 0 0 6 3 N 0,0
23.05.2020 06:00:00 9,6 7,0 2 1 7 4 E 0,0
23.05.2020 05:00:00 9,9 7,1 2 1 8 4 ENE 0,0
23.05.2020 04:00:00 10,0 7,1 2 1 6 3 E 0,0
23.05.2020 03:00:00 10,0 7,2 2 1 10 5 NNW 0,0
23.05.2020 02:00:00 10,0 7,1 0 0 5 3 N 0,0
23.05.2020 01:00:00 10,6 7,3 0 0 7 4 N 0,0
23.05.2020 00:00:00 11,9 8,0 0 0 5 3 N 0,0
22.05.2020 23:00:00 13,6 8,2 2 1 5 3 E 0,0
22.05.2020 22:00:00 15,0 8,2 2 1 9 5 ENE 0,0
22.05.2020 21:00:00 17,5 7,0 2 1 10 6 E 0,0
22.05.2020 20:00:00 21,8 4,8 6 3 16 9 W 0,0
22.05.2020 19:00:00 24,0 4,9 7 4 23 12 W 0,0
22.05.2020 18:00:00 26,2 4,6 7 4 28 15 SW 0,0
22.05.2020 17:00:00 26,5 3,7 8 4 28 15 SW 0,0
22.05.2020 16:00:00 27,1 4,2 6 3 22 12 S 0,0
22.05.2020 15:00:00 26,5 2,4 7 4 26 14 S 0,0
22.05.2020 14:00:00 25,5 3,4 7 4 25 14 S 0,0
22.05.2020 13:00:00 25,4 5,0 7 4 26 14 SSE 0,0
22.05.2020 12:00:00 24,0 4,4 6 4 22 12 S 0,0
22.05.2020 11:00:00 21,8 4,8 3 1 9 5 W 0,0
22.05.2020 10:00:00 18,4 6,9 0 0 6 4 N 0,0
22.05.2020 09:00:00 11,8 7,1 0 0 6 3 N 0,0
22.05.2020 08:00:00 6,4 5,7 0 0 5 3 N 0,0
22.05.2020 07:00:00 5,6 4,7 2 1 7 4 E 0,0
22.05.2020 06:00:00 5,4 4,5 0 0 6 4 N 0,0
22.05.2020 05:00:00 5,8 4,8 2 1 5 3 NNW 0,0
22.05.2020 04:00:00 6,5 5,1 2 1 11 6 NNE 0,0
22.05.2020 03:00:00 7,2 5,5 2 1 9 5 ENE 0,0
22.05.2020 02:00:00 7,9 5,9 0 0 6 4 N 0,0
22.05.2020 01:00:00 9,0 6,6 4 2 8 4 E 0,0
22.05.2020 00:00:00 9,9 6,8 0 0 9 5 N 0,0
21.05.2020 23:00:00 11,5 7,6 3 2 8 4 E 0,0
21.05.2020 22:00:00 13,1 7,5 3 2 7 4 E 0,0
21.05.2020 21:00:00 15,5 7,3 0 0 10 6 N 0,0
21.05.2020 20:00:00 18,8 6,3 3 2 16 9 NNW 0,0
21.05.2020 19:00:00 21,2 6,7 2 1 16 9 NNE 0,0
21.05.2020 18:00:00 26,0 4,4 5 3 21 12 NE 0,0
21.05.2020 17:00:00 26,2 2,1 4 2 19 10 N 0,0
21.05.2020 16:00:00 25,8 4,8 6 3 27 15 SW 0,0
21.05.2020 15:00:00 25,1 6,3 9 5 27 15 SW 0,0
21.05.2020 14:00:00 24,0 7,6 8 4 28 15 SSW 0,0
21.05.2020 13:00:00 22,9 8,6 10 5 26 14 SSW 0,0
21.05.2020 12:00:00 21,8 8,3 5 3 15 8 SSW 0,0
21.05.2020 11:00:00 21,0 8,6 3 2 12 6 SW 0,0
21.05.2020 10:00:00 17,9 8,2 2 1 8 4 SE 0,0
21.05.2020 09:00:00 9,5 9,2 2 1 5 3 ESE 0,0
21.05.2020 08:00:00 6,3 5,9 0 0 5 3 N 0,0
21.05.2020 07:00:00 6,2 5,6 0 0 4 2 N 0,0
21.05.2020 06:00:00 6,1 5,5 3 2 6 4 E 0,0
21.05.2020 05:00:00 6,5 5,8 0 0 4 2 N 0,0
21.05.2020 04:00:00 7,2 6,5 0 0 6 3 N 0,0
21.05.2020 03:00:00 7,8 6,9 0 0 5 3 N 0,0
21.05.2020 02:00:00 8,6 7,4 0 0 5 3 N 0,0
21.05.2020 01:00:00 9,5 7,8 2 1 5 3 N 0,0
21.05.2020 00:00:00 10,6 8,2 0 0 5 3 N 0,0
20.05.2020 23:00:00 12,1 8,6 0 0 6 3 N 0,0
20.05.2020 22:00:00 13,8 8,8 0 0 9 5 N 0,0
20.05.2020 21:00:00 15,8 8,5 3 1 10 6 NNE 0,0
20.05.2020 20:00:00 19,5 8,8 3 1 18 10 S 0,0
20.05.2020 19:00:00 21,6 6,7 4 2 23 12 WSW 0,0
20.05.2020 18:00:00 24,6 6,3 8 4 29 16 NE 0,0
20.05.2020 17:00:00 24,4 6,6 9 5 28 15 NNE 0,0
20.05.2020 16:00:00 24,8 7,0 8 4 26 14 NE 0,0
20.05.2020 15:00:00 24,2 5,5 9 5 35 19 NNE 0,0
20.05.2020 14:00:00 24,3 5,6 7 4 31 17 NE 0,0

tt = temperature
td = dewpoint
ff = wind speed
fx = gusts
dd = wind direction
rr = precipitation

Next stations